createdAt,value
2018-04-26T00:01:59.962Z,13.40
2018-04-26T00:04:04.257Z,13.30
2018-04-26T00:06:08.280Z,13.20
2018-04-26T00:08:12.292Z,13.20
2018-04-26T00:10:16.473Z,13.10
2018-04-26T00:12:20.423Z,13.00
2018-04-26T00:14:24.297Z,13.00
2018-04-26T00:16:28.348Z,13.00
2018-04-26T00:18:32.457Z,12.90
2018-04-26T00:20:36.410Z,12.90
2018-04-26T00:22:40.807Z,12.80
2018-04-26T00:24:44.993Z,12.70
2018-04-26T00:26:49.055Z,12.60
2018-04-26T00:28:55.313Z,12.60
2018-04-26T00:31:00.294Z,12.60
2018-04-26T00:33:04.271Z,12.60
2018-04-26T00:35:08.623Z,12.60
2018-04-26T00:37:12.671Z,12.60
2018-04-26T00:39:16.842Z,12.60
2018-04-26T00:41:21.985Z,12.50
2018-04-26T00:43:26.674Z,12.50
2018-04-26T00:45:30.597Z,12.50
2018-04-26T00:47:34.451Z,12.50
2018-04-26T00:49:38.417Z,12.50
2018-04-26T00:52:01.333Z,12.50
2018-04-26T00:54:05.886Z,12.50
2018-04-26T00:56:09.756Z,12.40
2018-04-26T00:58:13.722Z,12.40
2018-04-26T01:00:18.801Z,12.40
2018-04-26T01:02:22.730Z,12.40
2018-04-26T01:04:26.595Z,12.40
2018-04-26T01:06:30.591Z,12.40
2018-04-26T01:08:34.517Z,12.40
2018-04-26T01:10:38.383Z,12.30
2018-04-26T01:12:42.908Z,12.40
2018-04-26T01:14:47.043Z,12.30
2018-04-26T01:16:51.526Z,12.30
2018-04-26T01:18:56.453Z,12.20
2018-04-26T01:21:01.069Z,12.20
2018-04-26T01:23:05.693Z,12.20
2018-04-26T01:25:09.946Z,12.20
2018-04-26T01:27:13.829Z,12.20
2018-04-26T01:29:17.845Z,12.10
2018-04-26T01:33:55.846Z,12.10
2018-04-26T01:36:00.547Z,12.10
2018-04-26T01:38:05.001Z,12.00
2018-04-26T01:40:09.405Z,12.00
2018-04-26T01:42:15.743Z,12.00
2018-04-26T01:44:21.247Z,12.00
2018-04-26T01:46:25.123Z,11.90
2018-04-26T01:48:29.843Z,11.80
2018-04-26T01:50:34.905Z,11.90
2018-04-26T01:52:39.497Z,11.80
2018-04-26T01:54:44.570Z,11.90
2018-04-26T01:56:50.697Z,11.90
2018-04-26T01:58:54.828Z,11.90
2018-04-26T02:00:59.038Z,11.90
2018-04-26T02:03:03.337Z,12.00
2018-04-26T02:05:07.909Z,11.90
2018-04-26T02:07:12.567Z,11.90
2018-04-26T02:09:18.413Z,11.80
2018-04-26T02:11:23.409Z,11.80
2018-04-26T02:13:27.300Z,11.80
2018-04-26T02:15:31.529Z,11.80
2018-04-26T02:17:35.413Z,11.50
2018-04-26T02:19:39.543Z,11.70
2018-04-26T02:21:44.174Z,11.70
2018-04-26T02:23:48.004Z,11.60
2018-04-26T02:26:37.938Z,11.60
2018-04-26T02:28:45.712Z,11.50
2018-04-26T03:06:19.613Z,10.80
2018-04-26T03:14:09.800Z,10.80
2018-04-26T03:17:38.450Z,10.70
2018-04-26T03:31:11.316Z,10.50
2018-04-26T03:33:44.010Z,10.40
2018-04-26T03:36:19.139Z,10.40
2018-04-26T03:38:38.108Z,10.40
2018-04-26T03:43:40.117Z,10.40
2018-04-26T04:05:51.840Z,9.80
2018-04-26T04:10:49.634Z,9.70
2018-04-26T04:13:20.785Z,9.70
2018-04-26T04:15:37.852Z,9.70
2018-04-26T04:27:50.843Z,9.70
2018-04-26T04:47:54.166Z,9.60
2018-04-26T04:50:04.932Z,9.90
2018-04-26T04:52:23.836Z,9.80
2018-04-26T04:54:56.706Z,9.90
2018-04-26T05:41:57.252Z,12.70
2018-04-26T06:10:26.790Z,13.60
2018-04-26T06:12:36.445Z,13.80
2018-04-26T07:50:14.818Z,14.40
